Time;durP1;ratioP1;P1;durP2;ratioP2;P2;SDS_P1;SDS_P2;PMS_P1;PMS_P2;Temp;Humidity;BMP_temperature;BMP_pressure;BME280_temperature;BME280_humidity;BME280_pressure;Samples;Min_cycle;Max_cycle;Signal;HPM_P1;HPM_P2
2023/04/24 00:00:10;;;;;;;2.75;1.60;;;11.70;99.90;;;;;;5073505;28;20041;-73
2023/04/24 00:02:39;;;;;;;;;;;11.70;99.90;;;;;;5076388;28;20045;-72
2023/04/24 00:05:06;;;;;;;0.98;0.60;;;11.70;99.90;;;;;;5074413;28;19996;-73
2023/04/24 00:07:32;;;;;;;0.82;0.50;;;11.70;99.90;;;;;;5074244;28;20055;-74
2023/04/24 00:09:58;;;;;;;0.80;0.50;;;11.60;99.90;;;;;;5074194;28;20049;-74
2023/04/24 00:12:24;;;;;;;0.40;0.30;;;11.50;99.90;;;;;;5074526;28;20052;-74
2023/04/24 00:14:50;;;;;;;0.30;0.30;;;11.40;99.90;;;;;;5074866;28;20051;-74
2023/04/24 00:17:19;;;;;;;0.82;0.40;;;11.40;99.90;;;;;;5074044;28;20559;-75
2023/04/24 00:19:46;;;;;;;0.32;0.30;;;11.30;99.90;;;;;;5074984;28;20053;-75
2023/04/24 00:22:13;;;;;;;2.13;0.20;;;11.30;99.90;;;;;;5074286;28;20048;-76
2023/04/24 00:24:39;;;;;;;0.90;0.28;;;11.20;99.90;;;;;;5056691;28;20492;-75
2023/04/24 00:27:05;;;;;;;0.32;0.20;;;11.10;99.90;;;;;;5074641;28;20044;-76
2023/04/24 00:29:31;;;;;;;0.38;0.20;;;11.00;99.90;;;;;;5074068;28;20071;-76
2023/04/24 00:31:57;;;;;;;0.93;0.30;;;11.00;99.90;;;;;;5074937;28;20041;-77
2023/04/24 00:34:22;;;;;;;0.40;0.30;;;10.90;99.90;;;;;;5074695;28;20056;-76
2023/04/24 00:36:51;;;;;;;0.40;0.30;;;10.90;99.90;;;;;;5074786;28;20130;-76
2023/04/24 00:39:18;;;;;;;0.60;0.38;;;10.80;99.90;;;;;;5073565;28;20128;-75
2023/04/24 00:41:45;;;;;;;0.73;0.40;;;10.80;99.90;;;;;;5073286;28;20051;-76
2023/04/24 00:44:11;;;;;;;0.40;0.40;;;10.80;99.90;;;;;;5074563;28;20136;-74
2023/04/24 00:46:37;;;;;;;1.63;0.40;;;10.80;99.90;;;;;;5074010;28;20153;-76
2023/04/24 00:49:04;;;;;;;1.17;0.60;;;10.70;99.90;;;;;;5074450;28;20051;-76
2023/04/24 00:51:32;;;;;;;1.25;0.50;;;10.60;99.90;;;;;;5074472;28;20048;-75
2023/04/24 00:53:58;;;;;;;1.00;0.70;;;10.70;99.90;;;;;;5073547;28;20048;-76
2023/04/24 00:56:24;;;;;;;1.48;0.80;;;10.60;99.90;;;;;;5074107;28;20068;-76
2023/04/24 00:58:50;;;;;;;1.25;0.70;;;10.60;99.90;;;;;;5073838;28;20083;-76
2023/04/24 01:01:20;;;;;;;0.82;0.60;;;10.60;99.90;;;;;;5073080;28;20494;-74
2023/04/24 01:03:46;;;;;;;0.77;0.50;;;10.60;99.90;;;;;;5074415;28;20123;-76
2023/04/24 01:06:13;;;;;;;0.65;0.57;;;10.60;99.90;;;;;;5074116;28;20051;-76
2023/04/24 01:08:40;;;;;;;1.45;0.70;;;10.60;99.90;;;;;;5073992;28;20401;-77
2023/04/24 01:11:05;;;;;;;0.73;0.70;;;10.70;99.90;;;;;;5073860;28;20408;-78
2023/04/24 01:13:32;;;;;;;1.08;0.70;;;10.70;99.90;;;;;;5073108;28;20101;-77
2023/04/24 01:15:58;;;;;;;0.70;0.70;;;10.60;99.90;;;;;;5074026;28;20402;-77
2023/04/24 01:18:24;;;;;;;0.95;0.80;;;10.70;99.90;;;;;;5072880;28;20040;-77
2023/04/24 01:20:52;;;;;;;0.98;0.82;;;10.60;99.90;;;;;;5072752;28;20048;-75
2023/04/24 01:23:18;;;;;;;1.27;1.00;;;10.70;99.90;;;;;;5072928;28;20106;-74
2023/04/24 01:25:45;;;;;;;1.83;0.98;;;10.60;99.90;;;;;;5073526;28;20048;-75
2023/04/24 01:28:11;;;;;;;1.30;1.20;;;10.60;99.90;;;;;;5073255;28;20098;-76
2023/04/24 01:30:37;;;;;;;1.50;1.27;;;10.60;99.90;;;;;;5073475;28;20048;-75
2023/04/24 01:33:02;;;;;;;1.50;1.40;;;10.60;99.90;;;;;;5073673;28;20055;-76
2023/04/24 01:35:28;;;;;;;1.60;1.15;;;10.60;99.90;;;;;;5073534;28;20161;-76
2023/04/24 01:37:54;;;;;;;1.73;1.02;;;10.60;99.90;;;;;;5072518;28;20048;-76
2023/04/24 01:40:20;;;;;;;1.15;0.90;;;10.50;99.90;;;;;;5072245;28;20507;-76
2023/04/24 01:42:46;;;;;;;1.42;1.20;;;10.50;99.90;;;;;;5072537;28;20369;-75
2023/04/24 01:45:15;;;;;;;1.50;1.33;;;10.50;99.90;;;;;;5073469;28;20091;-75
2023/04/24 01:47:41;;;;;;;1.35;1.15;;;10.50;99.90;;;;;;5073407;28;20056;-76
2023/04/24 01:50:07;;;;;;;1.90;1.60;;;10.50;99.90;;;;;;5073539;28;20046;-75
2023/04/24 01:52:35;;;;;;;2.22;1.45;;;10.50;99.90;;;;;;5072416;28;20044;-73
2023/04/24 01:55:00;;;;;;;1.60;1.35;;;10.50;99.90;;;;;;5072068;28;20045;-75
2023/04/24 01:57:26;;;;;;;1.70;1.50;;;10.40;99.90;;;;;;5072418;28;20060;-74
2023/04/24 01:59:52;;;;;;;7.20;1.52;;;10.50;99.90;;;;;;5072813;28;20045;-75
2023/04/24 02:02:18;;;;;;;1.73;1.30;;;10.50;99.90;;;;;;5072526;28;20135;-74
2023/04/24 02:04:43;;;;;;;2.85;1.50;;;10.50;99.90;;;;;;5072209;28;20505;-75
2023/04/24 02:07:10;;;;;;;1.73;1.38;;;10.40;99.90;;;;;;5073179;28;20370;-74
2023/04/24 02:09:35;;;;;;;1.90;1.60;;;10.40;99.90;;;;;;5073003;28;20053;-76
2023/04/24 02:12:01;;;;;;;1.98;1.60;;;10.40;99.90;;;;;;5073254;28;20131;-75
2023/04/24 02:14:27;;;;;;;1.60;1.40;;;10.40;99.90;;;;;;5072257;28;20048;-75
2023/04/24 02:16:53;;;;;;;1.98;1.33;;;10.50;99.90;;;;;;5072129;28;20045;-75
2023/04/24 02:19:19;;;;;;;1.90;1.67;;;10.40;99.90;;;;;;5073144;28;20127;-74
2023/04/24 02:21:45;;;;;;;2.50;1.70;;;10.40;99.90;;;;;;5073072;28;20048;-75
2023/04/24 02:24:10;;;;;;;2.97;1.80;;;10.40;99.90;;;;;;5072892;28;20071;-74
2023/04/24 02:26:36;;;;;;;2.45;1.95;;;10.40;99.90;;;;;;5073121;28;20128;-74
2023/04/24 02:29:02;;;;;;;2.25;1.58;;;10.50;99.90;;;;;;5072588;28;20080;-74
2023/04/24 02:31:27;;;;;;;2.00;1.67;;;10.50;99.90;;;;;;5073040;28;20049;-74
2023/04/24 02:33:53;;;;;;;2.35;1.95;;;10.50;99.90;;;;;;5072449;28;20131;-73
2023/04/24 02:36:19;;;;;;;2.83;2.10;;;10.50;99.90;;;;;;5076884;28;20101;-73
2023/04/24 02:38:45;;;;;;;2.83;2.42;;;10.50;99.90;;;;;;5076762;28;20052;-74
2023/04/24 02:41:10;;;;;;;2.90;2.60;;;10.60;99.90;;;;;;5077039;28;20045;-73
2023/04/24 02:43:36;;;;;;;2.90;2.15;;;10.50;99.90;;;;;;5076904;28;20548;-73
2023/04/24 02:46:02;;;;;;;2.58;1.92;;;10.70;99.90;;;;;;5076488;28;20043;-73
2023/04/24 02:48:28;;;;;;;2.92;2.22;;;10.50;99.90;;;;;;5076711;28;20488;-72
2023/04/24 02:50:54;;;;;;;3.03;2.40;;;10.50;99.90;;;;;;5076697;28;20040;-74
2023/04/24 02:53:20;;;;;;;4.38;3.03;;;10.50;99.90;;;;;;5075554;28;20105;-74
2023/04/24 02:55:46;;;;;;;2.88;2.60;;;10.50;99.90;;;;;;5075926;28;20074;-65
2023/04/24 02:58:12;;;;;;;3.50;3.20;;;10.50;99.90;;;;;;5074966;28;20124;-75
2023/04/24 03:00:39;;;;;;;3.70;3.40;;;10.50;99.90;;;;;;5076507;28;20056;-72
2023/04/24 03:03:05;;;;;;;4.18;3.78;;;10.40;99.90;;;;;;5076557;28;20049;-73
2023/04/24 03:05:31;;;;;;;3.92;3.63;;;10.40;99.90;;;;;;5076166;28;20132;-75
2023/04/24 03:07:56;;;;;;;3.67;3.38;;;10.40;99.90;;;;;;5076374;28;20043;-76
2023/04/24 03:10:22;;;;;;;4.78;4.00;;;10.40;99.90;;;;;;5076455;28;20131;-75
2023/04/24 03:12:48;;;;;;;4.50;4.10;;;10.30;99.90;;;;;;5075382;28;20052;-73
2023/04/24 03:15:14;;;;;;;5.43;4.40;;;10.20;99.90;;;;;;5076115;28;20095;-74
2023/04/24 03:17:40;;;;;;;4.78;4.38;;;10.30;99.90;;;;;;5076300;28;20463;-74
2023/04/24 03:20:08;;;;;;;4.60;4.20;;;10.20;99.90;;;;;;5074856;28;20060;-74
2023/04/24 03:22:34;;;;;;;4.43;3.95;;;10.10;99.90;;;;;;5075795;28;20048;-74
2023/04/24 03:25:00;;;;;;;4.10;3.78;;;10.20;99.90;;;;;;5076158;28;20059;-74
2023/04/24 03:27:26;;;;;;;4.00;3.67;;;10.20;99.90;;;;;;5075998;28;20044;-71
2023/04/24 03:29:54;;;;;;;4.13;3.78;;;10.20;99.90;;;;;;5075443;28;20048;-74
2023/04/24 03:32:21;;;;;;;3.30;3.08;;;10.20;99.90;;;;;;5076023;28;20049;-74
2023/04/24 03:34:47;;;;;;;3.50;3.20;;;10.20;99.90;;;;;;5075837;28;20095;-76
2023/04/24 03:37:13;;;;;;;3.60;3.08;;;10.10;99.90;;;;;;5074567;28;20044;-75
2023/04/24 03:39:39;;;;;;;3.97;3.58;;;10.10;99.90;;;;;;5075847;28;20047;-75
2023/04/24 03:42:04;;;;;;;3.50;3.20;;;10.10;99.90;;;;;;5075913;28;20080;-76
2023/04/24 03:44:30;;;;;;;3.65;3.35;;;10.10;99.90;;;;;;5075543;28;20066;-71
2023/04/24 03:46:58;;;;;;;3.55;3.25;;;10.10;99.90;;;;;;5073353;28;20056;-77
2023/04/24 03:49:23;;;;;;;3.58;3.28;;;10.10;99.90;;;;;;5075577;28;20071;-68
2023/04/24 03:51:49;;;;;;;3.80;3.40;;;10.00;99.90;;;;;;5074368;28;20485;-76
2023/04/24 03:54:15;;;;;;;3.63;3.28;;;10.00;99.90;;;;;;5074786;28;20044;-76
2023/04/24 03:56:40;;;;;;;3.92;3.47;;;10.00;99.90;;;;;;5075886;28;20127;-74
2023/04/24 03:59:06;;;;;;;3.40;3.10;;;10.00;99.90;;;;;;5074916;28;20109;-75
2023/04/24 04:01:32;;;;;;;4.65;3.92;;;10.00;99.90;;;;;;5075382;28;20044;-76
2023/04/24 04:03:58;;;;;;;4.68;3.35;;;10.10;99.90;;;;;;5074324;28;20044;-74
2023/04/24 04:06:23;;;;;;;4.25;3.85;;;10.00;99.90;;;;;;5073803;28;20044;-76
2023/04/24 04:08:49;;;;;;;4.18;3.60;;;10.00;99.90;;;;;;5075364;28;20094;-74
2023/04/24 04:11:14;;;;;;;4.57;3.90;;;10.00;99.90;;;;;;5075271;28;20416;-74
2023/04/24 04:13:40;;;;;;;4.75;3.40;;;10.20;99.90;;;;;;5075101;28;20118;-73
2023/04/24 04:16:06;;;;;;;3.97;3.50;;;10.00;99.90;;;;;;5075185;28;20123;-74
2023/04/24 04:18:32;;;;;;;4.68;3.80;;;10.00;99.90;;;;;;5075076;28;20070;-74
2023/04/24 04:20:57;;;;;;;4.78;3.90;;;9.90;99.90;;;;;;5074774;28;20052;-75
2023/04/24 04:23:23;;;;;;;4.13;3.72;;;9.90;99.90;;;;;;5075019;28;20040;-74
2023/04/24 04:25:49;;;;;;;4.20;3.75;;;9.90;99.90;;;;;;5074993;28;20054;-75
2023/04/24 04:28:15;;;;;;;4.43;4.03;;;9.90;99.90;;;;;;5073695;28;20084;-74
2023/04/24 04:30:41;;;;;;;4.40;3.88;;;9.90;99.90;;;;;;5074384;28;20087;-75
2023/04/24 04:33:07;;;;;;;4.18;3.78;;;9.90;99.90;;;;;;5074941;28;20045;-74
2023/04/24 04:35:33;;;;;;;4.55;4.15;;;9.90;99.90;;;;;;5073542;28;20087;-71
2023/04/24 04:37:59;;;;;;;5.03;3.90;;;9.90;99.90;;;;;;5073553;28;20040;-75
2023/04/24 04:40:26;;;;;;;4.45;3.70;;;9.90;99.90;;;;;;5074652;28;20479;-74
2023/04/24 04:42:52;;;;;;;4.32;3.72;;;9.90;99.90;;;;;;5074603;28;20109;-76
2023/04/24 04:45:20;;;;;;;4.18;3.78;;;9.90;99.90;;;;;;5056777;28;20433;-75
2023/04/24 04:47:46;;;;;;;4.13;3.72;;;9.90;99.90;;;;;;5073216;28;20066;-75
2023/04/24 04:50:12;;;;;;;4.18;3.17;;;9.80;99.90;;;;;;5074364;28;20506;-72
2023/04/24 04:52:38;;;;;;;4.10;3.70;;;9.90;99.90;;;;;;5074427;28;20163;-75
2023/04/24 04:55:05;;;;;;;3.30;2.95;;;9.90;99.90;;;;;;5056774;28;20139;-74
2023/04/24 04:57:30;;;;;;;5.53;3.13;;;9.90;99.90;;;;;;5074203;28;20052;-74
2023/04/24 04:59:56;;;;;;;3.55;2.97;;;9.90;99.90;;;;;;5072819;28;20049;-74
2023/04/24 05:02:22;;;;;;;3.30;3.00;;;9.90;99.90;;;;;;5072953;28;20131;-75
2023/04/24 05:04:48;;;;;;;4.22;3.00;;;9.90;99.90;;;;;;5072933;28;20075;-75
2023/04/24 05:07:14;;;;;;;3.38;2.90;;;9.90;99.90;;;;;;5074229;28;20162;-76
2023/04/24 05:09:39;;;;;;;3.50;3.00;;;9.90;99.90;;;;;;5056753;28;20114;-75
2023/04/24 05:12:05;;;;;;;3.53;3.22;;;9.90;99.90;;;;;;5074003;28;20534;-77
2023/04/24 05:14:31;;;;;;;4.82;3.17;;;9.90;99.90;;;;;;5073850;28;20131;-79
2023/04/24 05:16:56;;;;;;;4.25;3.10;;;9.80;99.90;;;;;;5056269;28;20056;-81
2023/04/24 05:19:22;;;;;;;3.45;2.42;;;9.90;99.90;;;;;;5073549;28;20127;-79
2023/04/24 05:21:48;;;;;;;3.08;2.75;;;9.90;99.90;;;;;;5073817;28;20109;-82
2023/04/24 05:24:13;;;;;;;2.90;2.60;;;9.90;99.90;;;;;;5073691;28;20127;-82
2023/04/24 05:26:39;;;;;;;3.65;2.53;;;9.90;99.90;;;;;;5072399;28;20049;-81
2023/04/24 05:29:05;;;;;;;2.72;2.53;;;9.90;99.90;;;;;;5073294;28;20040;-82
2023/04/24 05:31:31;;;;;;;3.00;2.60;;;9.90;99.90;;;;;;5073464;28;20480;-81
2023/04/24 05:33:56;;;;;;;4.35;2.90;;;9.90;99.90;;;;;;5055745;28;20055;-81
2023/04/24 05:36:22;;;;;;;3.35;2.50;;;9.80;99.90;;;;;;5073618;28;20056;-81
2023/04/24 05:38:48;;;;;;;3.45;2.72;;;9.90;99.90;;;;;;5055883;28;20045;-81
2023/04/24 05:41:14;;;;;;;3.28;2.70;;;9.90;99.90;;;;;;5073502;28;20159;-81
2023/04/24 05:43:40;;;;;;;3.42;2.78;;;9.90;99.90;;;;;;5073698;28;20052;-73
2023/04/24 05:46:06;;;;;;;4.20;3.42;;;9.90;99.90;;;;;;5071841;28;20041;-77
2023/04/24 05:48:31;;;;;;;3.78;2.88;;;9.90;99.90;;;;;;5072282;28;20098;-81
2023/04/24 05:50:57;;;;;;;3.40;2.70;;;9.70;99.90;;;;;;5072426;28;20051;-80
2023/04/24 05:53:23;;;;;;;3.75;2.20;;;9.90;99.90;;;;;;5055681;28;20110;-81
2023/04/24 05:55:49;;;;;;;2.90;2.17;;;9.80;99.90;;;;;;5072223;28;20045;-76
2023/04/24 05:58:15;;;;;;;2.85;2.20;;;9.90;99.90;;;;;;5073465;28;20115;-83
2023/04/24 06:00:42;;;;;;;2.45;2.00;;;9.70;99.90;;;;;;5071437;28;20079;-78
2023/04/24 06:03:08;;;;;;;2.72;2.10;;;9.70;99.90;;;;;;5071835;28;20036;-79
2023/04/24 06:05:34;;;;;;;2.97;1.80;;;9.80;99.90;;;;;;5072240;28;20051;-80
2023/04/24 06:08:00;;;;;;;2.45;1.90;;;9.80;99.90;;;;;;5073279;28;20052;-82
2023/04/24 06:10:26;;;;;;;2.88;1.63;;;9.90;99.90;;;;;;5071677;28;20055;-81
2023/04/24 06:12:51;;;;;;;2.33;1.70;;;9.90;99.90;;;;;;5072208;28;20140;-81
2023/04/24 06:15:17;;;;;;;2.00;1.65;;;9.90;99.90;;;;;;5072086;28;20197;-79
2023/04/24 06:17:43;;;;;;;2.78;1.98;;;9.90;99.90;;;;;;5054956;28;20087;-80
2023/04/24 06:20:10;;;;;;;2.00;1.73;;;9.90;99.90;;;;;;5073207;28;20052;-79
2023/04/24 06:22:36;;;;;;;4.40;2.13;;;9.90;99.90;;;;;;5055366;28;20098;-78
2023/04/24 06:25:02;;;;;;;4.45;2.00;;;10.10;99.90;;;;;;5072998;28;20083;-78
2023/04/24 06:27:28;;;;;;;2.33;1.80;;;9.90;99.90;;;;;;5072891;28;20040;-78
2023/04/24 06:29:54;;;;;;;2.20;1.42;;;9.90;99.90;;;;;;5071366;28;20529;-79
2023/04/24 06:32:22;;;;;;;1.90;1.60;;;9.90;99.90;;;;;;5055047;28;20052;-80
2023/04/24 06:34:48;;;;;;;2.80;2.00;;;9.90;99.90;;;;;;5072957;28;20080;-79
2023/04/24 06:37:15;;;;;;;2.25;1.60;;;9.90;99.90;;;;;;5071737;28;20133;-79
2023/04/24 06:39:41;;;;;;;2.35;1.77;;;9.90;99.90;;;;;;5071686;28;20052;-78
2023/04/24 06:42:08;;;;;;;2.75;1.60;;;9.90;99.90;;;;;;5071820;28;20373;-80
2023/04/24 06:44:37;;;;;;;2.65;1.50;;;10.00;99.90;;;;;;5071706;28;20052;-79
2023/04/24 06:47:03;;;;;;;3.05;1.33;;;10.00;99.90;;;;;;5072529;28;20064;-78
2023/04/24 06:49:29;;;;;;;2.28;1.67;;;10.00;99.90;;;;;;5055348;28;20122;-77
2023/04/24 06:51:54;;;;;;;2.22;1.50;;;9.90;99.90;;;;;;5072645;28;20047;-77
2023/04/24 06:54:20;;;;;;;2.67;1.88;;;10.00;99.90;;;;;;5071941;28;20106;-76
2023/04/24 06:56:47;;;;;;;3.10;1.80;;;10.00;99.90;;;;;;5072086;28;20464;-77
2023/04/24 06:59:13;;;;;;;2.70;1.90;;;10.10;99.90;;;;;;5072256;28;20557;-77
2023/04/24 07:01:39;;;;;;;2.25;1.65;;;10.00;99.90;;;;;;5071773;28;20048;-76
2023/04/24 07:04:04;;;;;;;2.78;1.77;;;10.00;99.90;;;;;;5072875;28;20463;-75
2023/04/24 07:06:30;;;;;;;2.33;1.67;;;10.10;99.90;;;;;;5072764;28;20049;-75
2023/04/24 07:08:56;;;;;;;1.80;1.50;;;10.00;99.90;;;;;;5071732;28;20036;-75
2023/04/24 07:11:22;;;;;;;2.03;1.48;;;10.10;99.90;;;;;;5071548;28;20044;-74
2023/04/24 07:13:48;;;;;;;2.13;1.50;;;9.90;99.90;;;;;;5072683;28;20064;-74
2023/04/24 07:16:13;;;;;;;2.42;1.75;;;10.00;99.90;;;;;;5071317;28;20480;-74
2023/04/24 07:18:39;;;;;;;2.58;1.75;;;10.30;99.90;;;;;;5072621;28;20044;-73
2023/04/24 07:21:06;;;;;;;2.17;1.42;;;10.00;99.90;;;;;;5072119;28;20044;-74
2023/04/24 07:23:31;;;;;;;2.63;1.70;;;10.00;99.90;;;;;;5076051;28;20145;-74
2023/04/24 07:25:57;;;;;;;2.65;1.70;;;10.00;99.90;;;;;;5075714;28;20091;-74
2023/04/24 07:28:23;;;;;;;1.30;1.00;;;10.00;99.90;;;;;;5075890;28;20048;-73
2023/04/24 07:30:48;;;;;;;1.70;1.10;;;10.10;99.90;;;;;;5057320;28;20052;-74
2023/04/24 07:33:14;;;;;;;1.40;1.00;;;10.10;99.90;;;;;;5076229;28;20365;-73
2023/04/24 07:35:40;;;;;;;1.30;0.90;;;10.20;99.90;;;;;;5075715;28;20044;-73
2023/04/24 07:38:06;;;;;;;1.73;1.10;;;10.10;99.90;;;;;;5076394;28;20070;-73
2023/04/24 07:40:31;;;;;;;1.83;1.20;;;10.20;99.90;;;;;;5075896;28;20494;-73
2023/04/24 07:42:57;;;;;;;3.08;1.45;;;10.20;99.90;;;;;;5075998;28;20090;-73
2023/04/24 07:45:23;;;;;;;3.60;2.20;;;10.30;99.90;;;;;;5075485;28;20049;-73
2023/04/24 07:47:50;;;;;;;4.80;2.28;;;10.30;99.90;;;;;;5075463;28;20056;-73
2023/04/24 07:50:16;;;;;;;5.20;3.05;;;10.40;99.90;;;;;;5075738;28;20128;-73
2023/04/24 07:52:42;;;;;;;5.45;2.70;;;10.40;99.90;;;;;;5075953;28;20080;-72
2023/04/24 07:55:08;;;;;;;4.20;2.30;;;10.50;99.90;;;;;;5074419;28;20056;-74
2023/04/24 07:57:33;;;;;;;1.75;1.10;;;10.60;99.90;;;;;;5075472;28;20070;-74
2023/04/24 07:59:59;;;;;;;2.03;1.30;;;10.50;99.90;;;;;;5074694;28;20128;-73
2023/04/24 08:02:28;;;;;;;1.70;1.23;;;10.50;99.90;;;;;;5074579;28;20052;-76
2023/04/24 08:04:54;;;;;;;2.60;1.85;;;10.50;99.90;;;;;;5073554;28;20044;-75
2023/04/24 08:07:19;;;;;;;2.08;1.48;;;10.50;99.90;;;;;;5057962;28;20131;-76
2023/04/24 08:09:45;;;;;;;2.90;2.17;;;10.40;99.90;;;;;;5075299;28;20515;-74
2023/04/24 08:12:11;;;;;;;1.75;1.30;;;10.50;99.90;;;;;;5075187;28;20040;-75
2023/04/24 08:14:37;;;;;;;2.28;1.58;;;10.50;99.90;;;;;;5057106;28;20491;-77
2023/04/24 08:17:03;;;;;;;1.70;1.33;;;10.50;99.90;;;;;;5075199;28;20049;-77
2023/04/24 08:19:29;;;;;;;2.15;1.40;;;10.40;99.90;;;;;;5075033;28;20109;-76
2023/04/24 08:21:54;;;;;;;2.58;1.58;;;10.40;99.90;;;;;;5075126;28;20052;-89
2023/04/24 08:24:20;;;;;;;2.35;1.02;;;10.50;99.90;;;;;;5075078;28;20554;-79
2023/04/24 08:26:50;;;;;;;1.98;1.02;;;10.40;99.90;;;;;;5073798;28;20040;-79
2023/04/24 08:29:16;;;;;;;2.65;0.95;;;10.50;99.90;;;;;;5072809;28;20056;-76
2023/04/24 08:31:41;;;;;;;2.63;0.90;;;10.40;99.90;;;;;;5073537;28;20048;-82
2023/04/24 08:34:07;;;;;;;2.20;1.00;;;10.40;99.90;;;;;;5074114;28;20122;-80
2023/04/24 08:36:33;;;;;;;1.58;0.90;;;10.30;99.90;;;;;;5074748;28;20488;-76
2023/04/24 08:38:59;;;;;;;2.13;1.10;;;10.20;99.90;;;;;;5073736;28;20052;-76
2023/04/24 08:41:26;;;;;;;2.65;1.30;;;10.20;99.90;;;;;;5074461;28;20139;-73
2023/04/24 08:43:52;;;;;;;2.50;1.55;;;10.20;99.90;;;;;;5073342;28;20053;-72
2023/04/24 08:46:19;;;;;;;4.43;2.08;;;10.10;99.90;;;;;;5074242;28;20052;-81
2023/04/24 08:48:45;;;;;;;4.43;2.20;;;10.10;99.90;;;;;;5075096;28;20049;-77
2023/04/24 08:51:11;;;;;;;4.55;2.55;;;9.90;99.90;;;;;;5073309;28;20508;-82
2023/04/24 08:53:37;;;;;;;6.57;2.92;;;10.10;99.90;;;;;;5074563;28;20481;-77
2023/04/24 08:56:03;;;;;;;7.25;3.55;;;9.90;99.90;;;;;;5074414;28;20366;-77
2023/04/24 08:58:31;;;;;;;7.35;4.35;;;10.10;99.90;;;;;;5073286;28;20055;-76
2023/04/24 09:00:58;;;;;;;9.13;4.90;;;10.00;99.90;;;;;;5073208;28;20198;-76
2023/04/24 09:03:25;;;;;;;9.38;5.50;;;10.00;99.90;;;;;;5071356;28;20120;-75
2023/04/24 09:05:52;;;;;;;8.35;5.80;;;10.00;99.90;;;;;;5071931;28;20105;-78
2023/04/24 09:08:19;;;;;;;12.32;6.55;;;9.80;99.90;;;;;;5072477;28;20508;-79
2023/04/24 09:10:44;;;;;;;12.80;7.50;;;9.90;99.90;;;;;;5070119;28;20087;-79
2023/04/24 09:13:11;;;;;;;12.23;7.88;;;9.90;99.90;;;;;;5073533;28;20083;-76
2023/04/24 09:15:37;;;;;;;14.43;8.13;;;9.80;99.90;;;;;;5073790;28;20036;-72
2023/04/24 09:18:04;;;;;;;14.05;7.63;;;9.80;99.90;;;;;;5070914;28;20051;-76
2023/04/24 09:20:30;;;;;;;13.38;7.95;;;9.70;99.90;;;;;;5072276;28;20086;-71
2023/04/24 09:22:59;;;;;;;14.57;8.43;;;9.70;99.90;;;;;;5072307;28;20056;-68
2023/04/24 09:25:33;;;;;;;17.55;8.65;;;9.60;99.90;;;;;;5070595;28;20044;-71
2023/04/24 09:28:03;;;;;;;18.35;8.43;;;9.60;99.90;;;;;;5073425;28;20041;-74
2023/04/24 09:30:29;;;;;;;16.88;8.75;;;9.60;99.90;;;;;;5072577;28;20062;-66
2023/04/24 09:33:14;;;;;;;17.40;7.50;;;9.60;99.90;;;;;;5072452;28;20496;-73
2023/04/24 09:35:51;;;;;;;12.57;7.90;;;9.50;99.90;;;;;;5072775;28;20072;-71
2023/04/24 09:38:16;;;;;;;14.93;7.75;;;9.40;99.90;;;;;;5072677;28;20044;-72
2023/04/24 09:40:42;;;;;;;14.40;8.88;;;9.40;99.90;;;;;;5073072;28;20036;-73
2023/04/24 09:43:11;;;;;;;15.57;9.02;;;9.40;99.90;;;;;;5071694;28;20040;-74
2023/04/24 09:45:38;;;;;;;16.05;8.82;;;9.30;99.90;;;;;;5072795;28;20447;-74
2023/04/24 09:48:06;;;;;;;16.08;8.50;;;9.40;99.90;;;;;;5069791;28;20136;-75
2023/04/24 09:50:34;;;;;;;15.50;9.07;;;9.40;99.90;;;;;;5072824;28;20055;-79
2023/04/24 09:53:03;;;;;;;14.35;8.18;;;9.40;99.90;;;;;;5073027;28;20075;-74
2023/04/24 09:55:29;;;;;;;14.98;8.43;;;9.40;99.90;;;;;;5073084;28;20071;-72
2023/04/24 09:58:00;;;;;;;12.77;8.00;;;9.40;99.90;;;;;;5072567;28;20098;-81
2023/04/24 10:00:31;;;;;;;15.60;8.85;;;9.60;99.90;;;;;;5069713;28;20054;-76
2023/04/24 10:02:59;;;;;;;14.55;8.00;;;9.40;99.90;;;;;;5071952;28;20084;-77
2023/04/24 10:05:35;;;;;;;11.73;7.00;;;9.50;99.90;;;;;;5069253;28;20109;-73
2023/04/24 10:08:20;;;;;;;9.85;7.20;;;9.40;99.90;;;;;;5072577;28;20075;-71
2023/04/24 10:10:46;;;;;;;13.45;6.80;;;9.40;99.90;;;;;;5069071;28;20048;-80
2023/04/24 10:13:14;;;;;;;11.15;6.70;;;9.40;99.90;;;;;;5072624;28;20041;-80
2023/04/24 10:15:41;;;;;;;11.27;7.03;;;9.40;99.90;;;;;;5072373;28;20043;-77
2023/04/24 10:18:08;;;;;;;10.43;6.95;;;9.30;99.90;;;;;;5072559;28;20048;-67
2023/04/24 10:20:37;;;;;;;15.75;6.80;;;9.40;99.90;;;;;;5072553;28;20045;-79
2023/04/24 10:23:03;;;;;;;12.55;6.78;;;9.30;99.90;;;;;;5055161;28;20055;-81
2023/04/24 10:25:31;;;;;;;9.40;5.25;;;9.30;99.90;;;;;;5072363;28;20513;-78
2023/04/24 10:27:59;;;;;;;10.88;5.80;;;9.20;99.90;;;;;;5071278;28;20052;-76
2023/04/24 10:30:27;;;;;;;10.55;6.47;;;9.30;99.90;;;;;;5069509;28;20045;-79
2023/04/24 10:32:53;;;;;;;13.18;5.90;;;9.20;99.90;;;;;;5072716;28;20040;-80
2023/04/24 10:35:22;;;;;;;12.50;5.20;;;9.10;99.90;;;;;;5072805;28;20454;-74
2023/04/24 10:37:56;;;;;;;11.85;5.57;;;9.10;99.90;;;;;;5072876;28;20087;-73
2023/04/24 10:40:32;;;;;;;15.18;5.57;;;9.10;99.90;;;;;;5072797;28;20511;-71
2023/04/24 10:42:59;;;;;;;10.20;5.43;;;9.10;99.90;;;;;;5072677;28;20049;-76
2023/04/24 10:45:25;;;;;;;9.80;4.70;;;9.00;99.90;;;;;;5072914;28;20047;-72
2023/04/24 10:48:01;;;;;;;8.80;5.30;;;9.00;99.90;;;;;;5071131;28;20155;-70
2023/04/24 10:50:42;;;;;;;11.07;4.97;;;9.00;99.90;;;;;;5073103;28;20388;-74
2023/04/24 10:53:14;;;;;;;12.88;5.03;;;9.00;99.90;;;;;;5072707;28;20048;-70
2023/04/24 10:55:49;;;;;;;12.93;4.85;;;9.10;99.90;;;;;;5074776;28;20063;-78
2023/04/24 10:58:16;;;;;;;8.38;4.38;;;9.10;99.90;;;;;;5076477;28;20044;-75
2023/04/24 11:00:44;;;;;;;11.73;4.65;;;9.10;99.90;;;;;;5076051;28;20056;-78
2023/04/24 11:03:24;;;;;;;6.25;3.30;;;9.20;99.90;;;;;;5076719;28;20052;-75
2023/04/24 11:05:51;;;;;;;7.43;3.15;;;9.20;99.90;;;;;;5075927;28;20048;-78
2023/04/24 11:08:27;;;;;;;4.47;2.65;;;9.30;99.90;;;;;;5076286;28;20048;-72
2023/04/24 11:11:03;;;;;;;5.95;2.40;;;9.40;99.90;;;;;;5076272;28;20051;-77
2023/04/24 11:13:57;;;;;;;3.35;2.22;;;9.40;99.90;;;;;;5075663;28;20435;-68
2023/04/24 11:16:35;;;;;;;5.03;1.90;;;9.30;99.90;;;;;;5077039;28;20056;-69
2023/04/24 11:19:16;;;;;;;6.45;1.80;;;9.20;99.90;;;;;;5080624;28;20052;-72
2023/04/24 11:21:55;;;;;;;3.60;2.40;;;9.10;99.90;;;;;;5075737;28;20052;-72
2023/04/24 11:24:39;;;;;;;5.00;2.00;;;9.20;99.90;;;;;;5075708;28;20060;-76
2023/04/24 11:27:19;;;;;;;4.07;2.15;;;9.30;99.90;;;;;;5075068;28;20075;-68
2023/04/24 11:29:57;;;;;;;6.60;2.60;;;9.40;99.90;;;;;;5073813;28;20045;-69
2023/04/24 11:32:24;;;;;;;6.35;2.40;;;9.40;99.90;;;;;;5075951;28;20055;-76
2023/04/24 11:34:52;;;;;;;7.28;2.50;;;9.50;99.90;;;;;;5075216;28;20086;-70
2023/04/24 11:37:18;;;;;;;6.05;2.40;;;9.50;99.90;;;;;;5075321;28;20041;-70
2023/04/24 11:39:43;;;;;;;4.18;1.63;;;9.50;99.90;;;;;;5074137;28;20051;-68
2023/04/24 11:42:09;;;;;;;4.22;1.50;;;9.60;99.90;;;;;;5075212;28;20479;-69
2023/04/24 11:44:38;;;;;;;6.85;1.58;;;9.60;99.90;;;;;;5075432;28;20090;-70
2023/04/24 11:47:05;;;;;;;4.32;1.50;;;9.80;99.90;;;;;;5072611;28;20693;-68
2023/04/24 11:49:31;;;;;;;2.85;1.20;;;9.70;99.90;;;;;;5074898;28;20052;-69
2023/04/24 11:51:57;;;;;;;4.13;1.40;;;9.70;99.90;;;;;;5074921;28;20370;-68
2023/04/24 11:54:22;;;;;;;2.28;1.00;;;9.70;99.90;;;;;;5074806;28;20040;-72
2023/04/24 11:56:49;;;;;;;3.42;1.00;;;9.70;99.90;;;;;;5074007;28;20087;-67
2023/04/24 11:59:15;;;;;;;3.75;1.10;;;9.70;99.90;;;;;;5074109;28;20052;-69
2023/04/24 12:01:48;;;;;;;2.83;1.40;;;9.50;99.90;;;;;;5074094;28;20484;-67
2023/04/24 12:04:14;;;;;;;;;;;9.50;99.90;;;;;;5075036;28;20064;-68
2023/04/24 12:06:40;;;;;;;3.92;1.80;;;9.50;99.90;;;;;;5073958;28;19921;-68
2023/04/24 12:09:06;;;;;;;5.93;1.10;;;9.50;99.90;;;;;;5073554;28;20048;-69
2023/04/24 12:11:32;;;;;;;4.40;1.33;;;9.40;99.90;;;;;;5074484;28;20047;-68
2023/04/24 12:14:09;;;;;;;4.30;1.10;;;9.50;99.90;;;;;;5073194;28;20048;-68
2023/04/24 12:16:35;;;;;;;4.75;1.10;;;9.50;99.90;;;;;;5073589;28;20051;-68
2023/04/24 12:19:02;;;;;;;3.47;1.10;;;9.50;99.90;;;;;;5072079;28;20044;-67
2023/04/24 12:21:30;;;;;;;5.13;0.90;;;9.60;99.90;;;;;;5073268;28;20044;-69
2023/04/24 12:23:56;;;;;;;5.00;0.90;;;9.70;99.90;;;;;;5073660;28;20488;-68
2023/04/24 12:26:22;;;;;;;3.22;0.98;;;9.60;99.90;;;;;;5074386;28;20056;-70
2023/04/24 12:28:49;;;;;;;3.05;1.10;;;9.60;99.90;;;;;;5073383;28;20087;-69
2023/04/24 12:31:20;;;;;;;3.67;1.02;;;9.80;99.90;;;;;;5073409;28;20455;-71
2023/04/24 12:33:46;;;;;;;2.78;0.90;;;9.80;99.90;;;;;;5074486;28;20070;-67
2023/04/24 12:36:12;;;;;;;3.55;0.88;;;9.80;99.90;;;;;;5072958;28;20056;-66
2023/04/24 12:38:41;;;;;;;2.67;0.77;;;9.70;99.90;;;;;;5074136;28;20049;-67
2023/04/24 12:41:09;;;;;;;3.13;1.10;;;9.70;99.90;;;;;;5072782;28;20510;-67
2023/04/24 12:43:35;;;;;;;5.00;0.90;;;9.60;99.90;;;;;;5073982;28;20044;-66
2023/04/24 12:46:01;;;;;;;4.07;1.00;;;9.70;99.90;;;;;;5073727;28;20048;-66
2023/04/24 12:48:27;;;;;;;2.92;0.75;;;9.60;99.90;;;;;;5064493;28;20424;-67